Time;durP1;ratioP1;P1;durP2;ratioP2;P2;SDS_P1;SDS_P2;PMS_P1;PMS_P2;Temp;Humidity;BMP_temperature;BMP_pressure;BME280_temperature;BME280_humidity;BME280_pressure;Samples;Min_cycle;Max_cycle;Signal;HPM_P1;HPM_P2
2022/02/16 00:01:10;;;;;;;9.13;4.20;;;;;;;5.48;76.24;97874.53;4822306;29;20510;-85
2022/02/16 00:03:35;;;;;;;8.93;5.10;;;;;;;5.47;75.88;97886.97;4840415;29;20030;-85
2022/02/16 00:06:01;;;;;;;11.55;4.88;;;;;;;5.57;76.40;97876.53;4824702;29;20030;-84
2022/02/16 00:08:26;;;;;;;12.15;4.45;;;;;;;5.64;76.59;97885.13;4823167;29;20033;-85
2022/02/16 00:10:52;;;;;;;6.25;4.28;;;;;;;5.57;77.01;97876.53;4841774;29;20092;-85
2022/02/16 00:13:18;;;;;;;7.13;4.32;;;;;;;5.45;76.28;97859.94;4839670;29;20025;-85
2022/02/16 00:15:43;;;;;;;7.80;4.88;;;;;;;5.53;76.82;97869.31;4839415;29;20040;-85
2022/02/16 00:18:09;;;;;;;7.65;4.00;;;;;;;5.53;77.26;97867.47;4836868;29;20069;-85
2022/02/16 00:20:35;;;;;;;10.20;4.75;;;;;;;5.62;76.74;97884.56;4840975;29;20474;-85
2022/02/16 00:23:00;;;;;;;8.60;4.57;;;;;;;5.35;77.21;97857.13;4839379;29;20447;-84
2022/02/16 00:25:26;;;;;;;7.10;4.57;;;;;;;5.45;77.90;97859.13;4821949;29;20045;-84
2022/02/16 00:27:51;;;;;;;9.70;4.72;;;;;;;5.46;77.80;97858.09;4839915;29;20045;-84
2022/02/16 00:30:16;;;;;;;7.47;4.05;;;;;;;5.43;77.87;97867.31;4856803;29;20067;-84
2022/02/16 00:32:42;;;;;;;8.38;4.07;;;;;;;5.41;77.54;97845.59;4823064;29;20117;-85
2022/02/16 00:35:09;;;;;;;9.25;4.57;;;;;;;5.37;78.10;97844.47;4854367;29;20034;-85
2022/02/16 00:37:35;;;;;;;7.45;5.25;;;;;;;5.49;78.46;97847.03;4839196;29;20525;-85
2022/02/16 00:40:01;;;;;;;5.78;4.68;;;;;;;5.38;78.68;97845.25;4824051;29;20034;-85
2022/02/16 00:42:26;;;;;;;5.55;4.40;;;;;;;5.18;78.99;97827.19;4822741;29;20561;-85
2022/02/16 00:44:51;;;;;;;6.22;4.28;;;;;;;5.40;78.78;97814.88;4842400;29;20105;-85
2022/02/16 00:47:16;;;;;;;4.47;4.07;;;;;;;5.36;78.63;97826.97;4828226;29;20459;-85
2022/02/16 00:49:45;;;;;;;7.90;4.70;;;;;;;5.38;78.80;97827.53;4843000;29;20068;-85
2022/02/16 00:52:11;;;;;;;6.88;4.20;;;;;;;5.36;79.26;97812.94;4855079;29;20030;-85
2022/02/16 00:54:37;;;;;;;6.90;4.05;;;;;;;5.39;79.14;97812.47;4855004;29;20034;-85
2022/02/16 00:57:04;;;;;;;6.85;4.30;;;;;;;5.43;78.72;97814.41;4842632;29;20040;-85
2022/02/16 00:59:35;;;;;;;7.25;4.30;;;;;;;5.43;78.98;97819.69;4843810;29;20025;-85
2022/02/16 01:02:00;;;;;;;5.32;3.88;;;;;;;5.37;79.12;97817.19;4852654;29;20098;-85
2022/02/16 01:04:25;;;;;;;5.95;4.00;;;;;;;5.19;79.18;97799.72;4850406;29;20132;-85
2022/02/16 01:06:52;;;;;;;5.60;4.30;;;;;;;5.36;79.59;97816.41;4827374;29;20433;-85
2022/02/16 01:09:17;;;;;;;6.13;3.92;;;;;;;5.32;79.90;97788.81;4828720;29;20034;-85
2022/02/16 01:11:43;;;;;;;8.38;4.38;;;;;;;5.20;79.69;97772.22;4843793;29;20145;-85
2022/02/16 01:14:08;;;;;;;7.13;3.88;;;;;;;5.40;79.38;97806.94;4844280;29;20034;-85
2022/02/16 01:16:35;;;;;;;6.75;4.22;;;;;;;5.40;79.62;97804.28;4843006;29;20139;-85
2022/02/16 01:19:02;;;;;;;5.78;3.33;;;;;;;5.34;79.88;97802.59;4845768;29;20282;-84
2022/02/16 01:21:27;;;;;;;9.73;4.03;;;;;;;5.37;79.98;97786.25;4844563;29;20125;-84
2022/02/16 01:23:53;;;;;;;4.15;3.50;;;;;;;5.47;79.68;97812.06;4844345;29;21721;-84
2022/02/16 01:26:19;;;;;;;6.50;4.05;;;;;;;5.42;79.70;97788.97;4844224;29;20435;-85
2022/02/16 01:28:45;;;;;;;8.90;4.82;;;;;;;5.41;79.58;97811.19;4827514;29;20041;-85
2022/02/16 01:31:10;;;;;;;4.00;3.45;;;;;;;5.44;80.28;97794.03;4829846;29;20463;-85
2022/02/16 01:33:35;;;;;;;5.82;3.70;;;;;;;5.34;80.40;97789.38;4829435;29;20101;-85
2022/02/16 01:36:01;;;;;;;5.60;4.43;;;;;;;5.40;80.25;97775.19;4814135;29;20034;-85
2022/02/16 01:38:26;;;;;;;7.95;3.90;;;;;;;5.44;80.02;97778.16;4844539;29;20037;-85
2022/02/16 01:40:52;;;;;;;7.63;5.22;;;;;;;5.35;80.53;97761.09;4828543;29;20042;-85
2022/02/16 01:43:17;;;;;;;4.85;3.75;;;;;;;5.32;80.72;97752.59;4843420;29;20034;-85
2022/02/16 01:45:42;;;;;;;4.80;3.83;;;;;;;5.33;80.22;97746.25;4842168;29;20041;-85
2022/02/16 01:48:08;;;;;;;4.80;3.67;;;;;;;5.19;80.42;97733.59;4844053;29;20410;-85
2022/02/16 01:50:33;;;;;;;5.55;3.80;;;;;;;5.22;81.02;97715.38;4829005;29;20468;-85
2022/02/16 01:52:59;;;;;;;5.65;3.35;;;;;;;5.39;80.78;97749.78;4851756;29;20086;-85
2022/02/16 01:55:24;;;;;;;5.70;3.33;;;;;;;5.34;80.89;97736.47;4842797;29;20034;-85
2022/02/16 01:57:50;;;;;;;10.43;4.20;;;;;;;5.44;80.77;97749.84;4843615;29;20049;-85
2022/02/16 02:00:15;;;;;;;4.68;3.65;;;;;;;5.37;81.12;97743.13;4826801;29;20053;-85
2022/02/16 02:02:42;;;;;;;7.07;3.78;;;;;;;5.45;80.67;97729.47;4842605;29;20060;-85
2022/02/16 02:05:07;;;;;;;4.03;3.17;;;;;;;5.44;80.73;97722.59;4856970;29;20065;-85
2022/02/16 02:07:34;;;;;;;4.40;3.30;;;;;;;5.46;80.73;97717.88;4841267;29;20058;-85
2022/02/16 02:10:00;;;;;;;7.78;3.75;;;;;;;5.48;81.20;97713.94;4843430;29;20090;-85
2022/02/16 02:12:25;;;;;;;3.95;3.20;;;;;;;5.42;80.76;97708.81;4841636;29;20124;-85
2022/02/16 02:14:51;;;;;;;3.33;2.95;;;;;;;5.39;80.98;97727.81;4825757;29;20041;-86
2022/02/16 02:17:16;;;;;;;3.75;3.28;;;;;;;5.31;81.13;97703.34;4840483;29;20060;-86
2022/02/16 02:19:42;;;;;;;6.10;4.57;;;;;;;5.45;81.03;97713.59;4840462;29;20033;-85
2022/02/16 02:22:07;;;;;;;3.80;3.38;;;;;;;5.47;81.36;97699.09;4840040;29;20037;-86
2022/02/16 02:24:32;;;;;;;4.70;3.13;;;;;;;5.42;81.29;97698.22;4810492;29;20038;-86
2022/02/16 02:26:58;;;;;;;7.38;3.22;;;;;;;5.39;81.64;97693.41;4841974;29;20037;-86
2022/02/16 02:29:23;;;;;;;3.97;3.28;;;;;;;5.29;81.52;97668.41;4824813;29;20116;-86
2022/02/16 02:31:49;;;;;;;6.70;3.70;;;;;;;5.22;81.34;97651.13;4836299;29;20033;-86
2022/02/16 02:34:15;;;;;;;8.88;3.78;;;;;;;5.33;81.64;97674.81;4839599;29;20505;-86
2022/02/16 02:36:40;;;;;;;3.75;3.28;;;;;;;5.26;81.25;97645.06;4823414;29;20129;-86
2022/02/16 02:39:05;;;;;;;7.05;4.40;;;;;;;5.27;81.52;97665.22;4836975;29;20083;-86
2022/02/16 02:41:31;;;;;;;6.75;3.50;;;;;;;5.40;81.70;97664.06;4842368;29;20066;-86
2022/02/16 02:43:58;;;;;;;3.67;3.05;;;;;;;5.31;81.15;97623.19;4823540;29;20045;-86
2022/02/16 02:46:24;;;;;;;3.42;3.10;;;;;;;5.41;80.88;97656.94;4838766;29;20038;-86
2022/02/16 02:48:49;;;;;;;4.63;3.20;;;;;;;5.44;81.09;97661.75;4836750;29;20278;-85
2022/02/16 02:51:15;;;;;;;7.38;2.92;;;;;;;5.45;81.05;97655.38;4824750;29;20133;-85
2022/02/16 02:53:41;;;;;;;3.97;3.10;;;;;;;5.41;80.92;97663.03;4837215;29;20430;-85
2022/02/16 02:56:07;;;;;;;3.72;3.30;;;;;;;5.33;81.48;97640.41;4835882;29;20061;-86
2022/02/16 02:58:33;;;;;;;3.30;3.00;;;;;;;5.39;81.38;97638.66;4837467;29;20034;-86
2022/02/16 03:00:59;;;;;;;3.45;2.95;;;;;;;5.45;81.44;97650.91;4837543;29;20811;-86
2022/02/16 03:03:25;;;;;;;5.13;3.20;;;;;;;5.38;81.32;97637.03;4823861;29;20098;-86
2022/02/16 03:05:50;;;;;;;6.07;2.90;;;;;;;5.44;81.55;97646.66;4839870;29;20069;-86
2022/02/16 03:08:16;;;;;;;4.88;3.10;;;;;;;5.44;81.48;97643.22;4853044;29;20033;-86
2022/02/16 03:10:41;;;;;;;5.28;3.88;;;;;;;5.48;81.11;97641.69;4841556;29;20030;-86
2022/02/16 03:13:18;;;;;;;14.00;3.30;;;;;;;5.39;81.80;97635.22;4840521;29;20045;-86
2022/02/16 03:15:51;;;;;;;3.50;2.90;;;;;;;5.53;81.51;97650.47;4823548;29;20557;-86
2022/02/16 03:18:20;;;;;;;4.82;3.53;;;;;;;5.45;81.31;97628.94;4837806;29;20389;-86
2022/02/16 03:20:46;;;;;;;5.28;3.15;;;;;;;5.37;80.93;97611.66;4839311;29;20172;-86
2022/02/16 03:23:11;;;;;;;7.25;3.47;;;;;;;5.51;81.26;97625.28;4825596;29;20579;-86
2022/02/16 03:25:36;;;;;;;4.20;3.22;;;;;;;5.35;81.94;97591.78;4842408;29;20041;-86
2022/02/16 03:28:02;;;;;;;3.60;3.10;;;;;;;5.48;81.84;97615.22;4826117;29;20383;-86
2022/02/16 03:30:27;;;;;;;3.15;2.83;;;;;;;5.27;81.44;97571.81;4827713;29;20025;-86
2022/02/16 03:32:53;;;;;;;4.75;3.35;;;;;;;5.44;81.81;97609.59;4827010;29;20038;-86
2022/02/16 03:35:18;;;;;;;6.93;3.10;;;;;;;5.41;81.89;97588.94;4840464;29;20038;-86
2022/02/16 03:37:43;;;;;;;3.40;3.10;;;;;;;5.35;81.69;97599.72;4840964;29;20022;-86
2022/02/16 03:40:09;;;;;;;4.88;3.38;;;;;;;5.45;81.80;97603.28;4842632;29;20029;-86
2022/02/16 03:42:34;;;;;;;3.72;3.03;;;;;;;5.37;81.98;97590.50;4841751;29;20129;-86
2022/02/16 03:45:00;;;;;;;4.07;3.67;;;;;;;5.43;82.05;97586.84;4840341;29;20177;-86
2022/02/16 03:47:25;;;;;;;7.75;3.00;;;;;;;5.51;82.07;97614.72;4825961;29;20034;-86
2022/02/16 03:49:51;;;;;;;3.83;3.05;;;;;;;5.50;81.67;97586.66;4840714;29;20030;-86
2022/02/16 03:52:16;;;;;;;3.35;3.05;;;;;;;5.44;82.17;97585.00;4826092;29;20041;-86
2022/02/16 03:54:41;;;;;;;3.47;3.15;;;;;;;5.43;82.20;97576.25;4841134;29;20042;-86
2022/02/16 03:57:06;;;;;;;6.57;3.20;;;;;;;5.46;82.00;97583.69;4825424;29;20076;-86
2022/02/16 03:59:32;;;;;;;3.72;2.95;;;;;;;5.46;81.81;97581.03;4842678;29;20070;-86
2022/02/16 04:02:01;;;;;;;4.13;3.38;;;;;;;5.52;81.53;97579.28;4826437;29;20046;-86
2022/02/16 04:04:27;;;;;;;4.43;3.20;;;;;;;5.52;81.44;97592.50;4840053;29;20038;-86
2022/02/16 04:06:52;;;;;;;6.18;3.47;;;;;;;5.53;81.70;97573.72;4852938;29;20066;-86
2022/02/16 04:09:17;;;;;;;6.30;3.42;;;;;;;5.49;81.59;97569.97;4840027;29;20073;-86
2022/02/16 04:11:43;;;;;;;3.08;2.88;;;;;;;5.45;81.72;97563.59;4839510;29;20053;-86
2022/02/16 04:14:08;;;;;;;4.72;2.83;;;;;;;5.47;81.85;97574.72;4823412;29;20041;-86
2022/02/16 04:16:33;;;;;;;6.88;3.75;;;;;;;5.58;82.02;97576.44;4824206;29;20038;-86
2022/02/16 04:18:58;;;;;;;7.32;3.45;;;;;;;5.51;81.95;97564.44;4823523;29;20044;-86
2022/02/16 04:21:24;;;;;;;5.40;3.13;;;;;;;5.49;81.60;97548.00;4840038;29;20133;-86
2022/02/16 04:23:49;;;;;;;7.82;3.08;;;;;;;5.45;81.61;97555.66;4823629;29;20067;-86
2022/02/16 04:26:14;;;;;;;4.28;3.10;;;;;;;5.50;82.24;97552.25;4823117;29;20574;-86
2022/02/16 04:28:40;;;;;;;4.38;2.95;;;;;;;5.48;81.89;97544.59;4839517;29;20053;-86
2022/02/16 04:31:05;;;;;;;3.67;2.83;;;;;;;5.46;81.68;97551.16;4808862;29;20037;-85
2022/02/16 04:33:30;;;;;;;3.53;2.67;;;;;;;5.59;82.17;97553.44;4834307;29;20044;-85
2022/02/16 04:35:56;;;;;;;3.80;2.70;;;;;;;5.58;82.03;97549.97;4838131;29;20068;-86
2022/02/16 04:38:22;;;;;;;5.78;3.38;;;;;;;5.53;82.21;97536.69;4822269;29;20065;-86
2022/02/16 04:40:47;;;;;;;5.07;2.92;;;;;;;5.61;82.09;97546.84;4825023;29;20030;-86
2022/02/16 04:43:13;;;;;;;3.25;2.90;;;;;;;5.40;81.64;97515.91;4823558;29;20052;-86
2022/02/16 04:45:38;;;;;;;5.35;2.90;;;;;;;5.43;82.15;97512.75;4835353;29;21306;-86
2022/02/16 04:48:05;;;;;;;3.80;3.00;;;;;;;5.55;82.05;97534.59;4837803;29;20132;-86
2022/02/16 04:50:30;;;;;;;3.63;3.13;;;;;;;5.61;81.99;97527.50;4838107;29;20055;-86
2022/02/16 04:52:56;;;;;;;3.10;2.80;;;;;;;5.42;81.92;97503.22;4835598;29;20038;-86
2022/02/16 04:55:25;;;;;;;5.40;3.08;;;;;;;5.50;82.17;97486.91;4825097;29;20034;-86
2022/02/16 04:57:52;;;;;;;4.35;2.90;;;;;;;5.61;81.93;97499.22;4839208;29;20057;-86
2022/02/16 05:00:18;;;;;;;4.03;3.10;;;;;;;5.50;81.77;97505.44;4825230;29;20036;-86
2022/02/16 05:02:44;;;;;;;4.22;3.25;;;;;;;5.57;81.85;97490.13;4828069;29;20034;-86
2022/02/16 05:05:09;;;;;;;6.32;3.83;;;;;;;5.59;82.28;97488.03;4842837;29;20033;-86
2022/02/16 05:07:35;;;;;;;6.70;3.83;;;;;;;5.61;82.18;97490.47;4844880;29;20026;-85
2022/02/16 05:10:01;;;;;;;4.60;3.13;;;;;;;5.50;82.18;97476.34;4843476;29;20395;-85
2022/02/16 05:12:26;;;;;;;4.63;3.15;;;;;;;5.59;81.92;97481.97;4830874;29;20037;-85
2022/02/16 05:14:52;;;;;;;7.40;3.03;;;;;;;5.53;82.00;97473.16;4853562;29;20038;-85
2022/02/16 05:17:18;;;;;;;5.68;3.40;;;;;;;5.61;81.77;97490.47;4841979;29;20423;-85
2022/02/16 05:19:43;;;;;;;5.75;3.50;;;;;;;5.63;82.29;97475.94;4842150;29;20121;-85
2022/02/16 05:22:09;;;;;;;6.18;3.45;;;;;;;5.57;82.43;97460.25;4841295;29;20033;-85
2022/02/16 05:24:35;;;;;;;3.55;3.25;;;;;;;5.61;82.46;97459.50;4840548;29;20040;-85
2022/02/16 05:27:01;;;;;;;5.32;3.22;;;;;;;5.61;82.35;97454.22;4842990;29;20086;-85
2022/02/16 05:29:26;;;;;;;5.68;3.03;;;;;;;5.62;81.66;97473.50;4827880;29;20391;-84
2022/02/16 05:31:51;;;;;;;4.43;3.15;;;;;;;5.52;82.35;97445.13;4843299;29;20479;-85
2022/02/16 05:34:17;;;;;;;4.95;2.65;;;;;;;5.58;82.02;97449.41;4844122;29;20042;-83
2022/02/16 05:36:43;;;;;;;5.45;3.45;;;;;;;5.67;82.43;97450.56;4844756;29;20046;-84
2022/02/16 05:39:08;;;;;;;9.63;4.60;;;;;;;5.70;82.30;97442.09;4845250;29;20042;-84
2022/02/16 05:41:34;;;;;;;4.38;2.83;;;;;;;5.68;82.56;97416.97;4828945;29;20042;-85
2022/02/16 05:43:59;;;;;;;4.65;4.03;;;;;;;5.69;82.76;97429.94;4843314;29;20026;-86
2022/02/16 05:46:25;;;;;;;5.35;3.42;;;;;;;5.66;82.69;97441.00;4858494;29;20064;-86
2022/02/16 05:48:50;;;;;;;5.90;3.47;;;;;;;5.67;82.41;97421.44;4838167;29;20453;-86
2022/02/16 05:51:16;;;;;;;4.93;3.42;;;;;;;5.65;83.18;97412.97;4839398;29;20034;-86
2022/02/16 05:53:42;;;;;;;5.55;3.70;;;;;;;5.52;82.92;97397.50;4840732;29;20165;-86
2022/02/16 05:56:07;;;;;;;5.57;3.67;;;;;;;5.50;82.84;97377.63;4840170;29;20098;-86
2022/02/16 05:58:32;;;;;;;4.72;2.60;;;;;;;5.69;82.82;97413.25;4834264;29;20052;-86
2022/02/16 06:01:00;;;;;;;3.40;3.10;;;;;;;5.57;82.66;97375.56;4839783;29;20049;-86
2022/02/16 06:03:25;;;;;;;3.83;3.28;;;;;;;5.64;82.73;97392.81;4840181;29;20581;-86
2022/02/16 06:05:51;;;;;;;3.50;2.92;;;;;;;5.71;82.43;97374.09;4837452;29;20117;-86
2022/02/16 06:08:17;;;;;;;3.83;3.22;;;;;;;5.66;82.21;97358.97;4838228;29;20045;-86
2022/02/16 06:10:42;;;;;;;5.28;3.00;;;;;;;5.59;82.29;97344.34;4839359;29;20034;-86
2022/02/16 06:13:07;;;;;;;5.07;3.42;;;;;;;5.69;83.34;97357.66;4840546;29;20041;-86
2022/02/16 06:15:33;;;;;;;5.38;3.90;;;;;;;5.70;83.05;97353.97;4826265;29;20094;-85
2022/02/16 06:17:58;;;;;;;3.35;3.00;;;;;;;5.66;83.00;97351.00;4841563;29;20030;-85
2022/02/16 06:20:23;;;;;;;3.00;2.70;;;;;;;5.74;83.51;97347.91;4841488;29;20053;-85
2022/02/16 06:22:52;;;;;;;4.20;2.55;;;;;;;5.75;82.97;97373.31;4824499;29;20077;-85
2022/02/16 06:25:17;;;;;;;4.75;2.38;;;;;;;5.74;83.44;97349.75;4827799;29;20033;-85
2022/02/16 06:27:43;;;;;;;3.75;2.80;;;;;;;5.65;83.05;97333.56;4837394;29;20045;-85
2022/02/16 06:30:08;;;;;;;3.30;2.88;;;;;;;5.67;83.27;97352.63;4811134;29;20474;-85
2022/02/16 06:32:34;;;;;;;2.67;2.47;;;;;;;5.68;83.56;97340.97;4829081;29;20094;-85
2022/02/16 06:35:00;;;;;;;3.30;3.10;;;;;;;5.73;82.89;97350.81;4822820;29;20060;-84
2022/02/16 06:37:26;;;;;;;3.58;2.95;;;;;;;5.54;83.54;97315.19;4851093;29;20038;-85
2022/02/16 06:39:51;;;;;;;4.10;2.65;;;;;;;5.58;83.27;97316.28;4832125;29;20121;-85
2022/02/16 06:42:16;;;;;;;4.45;2.95;;;;;;;5.49;83.58;97297.44;4849257;29;20034;-84
2022/02/16 06:44:42;;;;;;;3.08;2.45;;;;;;;5.60;83.59;97307.03;4838397;29;20053;-85
2022/02/16 06:47:08;;;;;;;2.70;2.50;;;;;;;5.73;83.97;97329.63;4838939;29;20071;-85
2022/02/16 06:49:34;;;;;;;3.13;2.30;;;;;;;5.75;83.90;97336.25;4852627;29;20029;-85
2022/02/16 06:51:59;;;;;;;4.22;2.53;;;;;;;5.76;83.43;97326.47;4824325;29;20040;-85
2022/02/16 06:54:24;;;;;;;2.50;2.30;;;;;;;5.74;83.19;97328.59;4840767;29;20038;-85
2022/02/16 06:56:50;;;;;;;2.50;2.35;;;;;;;5.74;83.55;97326.75;4840216;29;20026;-85
2022/02/16 06:59:15;;;;;;;3.53;3.20;;;;;;;5.73;84.21;97321.69;4826821;29;20409;-85
2022/02/16 07:01:41;;;;;;;3.00;2.28;;;;;;;5.72;83.72;97315.59;4843957;29;20132;-85
2022/02/16 07:04:06;;;;;;;2.95;2.67;;;;;;;5.68;83.38;97295.97;4831599;29;20050;-85
2022/02/16 07:06:32;;;;;;;4.00;2.60;;;;;;;5.74;83.51;97294.19;4825673;29;20030;-85
2022/02/16 07:08:58;;;;;;;2.25;2.05;;;;;;;5.74;83.72;97300.28;4844583;29;20105;-85
2022/02/16 07:11:24;;;;;;;2.83;2.33;;;;;;;5.73;83.26;97313.75;4845282;29;20410;-85
2022/02/16 07:13:49;;;;;;;3.55;2.40;;;;;;;5.71;83.60;97311.34;4861450;29;20034;-85
2022/02/16 07:16:15;;;;;;;4.30;2.60;;;;;;;5.55;83.81;97269.97;4841987;29;20045;-85
2022/02/16 07:18:43;;;;;;;3.78;2.63;;;;;;;5.53;83.74;97280.00;4844723;29;20444;-85
2022/02/16 07:21:09;;;;;;;2.40;2.20;;;;;;;5.74;84.40;97294.97;4810129;29;20338;-85
2022/02/16 07:23:37;;;;;;;2.65;2.45;;;;;;;5.81;84.29;97284.16;4840734;29;20042;-85
2022/02/16 07:26:03;;;;;;;3.50;2.55;;;;;;;5.73;84.28;97287.28;4824035;29;20042;-85
2022/02/16 07:28:29;;;;;;;3.53;2.15;;;;;;;5.76;83.99;97271.69;4846877;29;20406;-85
2022/02/16 07:30:56;;;;;;;2.55;2.35;;;;;;;5.77;84.20;97288.34;4841179;29;20034;-85
2022/02/16 07:33:22;;;;;;;3.45;2.03;;;;;;;5.72;84.53;97262.66;4840429;29;20038;-85
2022/02/16 07:35:47;;;;;;;2.38;2.13;;;;;;;5.79;84.10;97260.56;4854966;29;20636;-85
2022/02/16 07:38:13;;;;;;;1.85;1.75;;;;;;;5.81;84.35;97271.72;4824285;29;20413;-85
2022/02/16 07:40:38;;;;;;;2.72;2.45;;;;;;;5.62;84.63;97240.63;4838209;29;20030;-85
2022/02/16 07:43:04;;;;;;;2.28;2.13;;;;;;;5.79;83.96;97260.56;4852791;29;20037;-85
2022/02/16 07:45:30;;;;;;;2.30;2.10;;;;;;;5.81;84.45;97269.06;4842713;29;20072;-85
2022/02/16 07:47:56;;;;;;;2.67;2.47;;;;;;;5.86;83.93;97255.09;4836029;29;20046;-85
2022/02/16 07:50:22;;;;;;;3.20;3.00;;;;;;;5.65;84.65;97232.19;4842063;29;20175;-85
2022/02/16 07:52:47;;;;;;;2.50;2.30;;;;;;;5.78;84.12;97252.91;4841924;29;20047;-85
2022/02/16 07:55:12;;;;;;;1.88;1.77;;;;;;;5.64;84.31;97196.97;4843725;29;20037;-85
2022/02/16 07:57:40;;;;;;;2.42;2.08;;;;;;;5.69;84.32;97207.59;4843836;29;20452;-85
2022/02/16 08:00:07;;;;;;;2.67;2.00;;;;;;;5.66;84.34;97196.72;4841105;29;20034;-85
2022/02/16 08:02:32;;;;;;;2.60;2.40;;;;;;;5.68;84.11;97189.34;4839589;29;20679;-85
2022/02/16 08:04:58;;;;;;;2.28;2.17;;;;;;;5.68;84.49;97192.75;4842206;29;20046;-84
2022/02/16 08:07:23;;;;;;;2.30;2.20;;;;;;;5.72;84.18;97185.13;4842958;29;20042;-84
2022/02/16 08:09:49;;;;;;;2.65;2.05;;;;;;;5.71;84.75;97164.97;4841604;29;20384;-84
2022/02/16 08:12:15;;;;;;;2.20;1.98;;;;;;;5.99;84.89;97206.94;4841964;29;20128;-84
2022/02/16 08:14:41;;;;;;;2.40;2.20;;;;;;;5.95;84.73;97197.94;4841858;29;20041;-84
2022/02/16 08:17:06;;;;;;;4.60;2.22;;;;;;;5.94;84.68;97183.91;4853967;29;20394;-84
2022/02/16 08:19:35;;;;;;;2.30;2.08;;;;;;;6.00;84.80;97193.47;4824143;29;20053;-84
2022/02/16 08:22:00;;;;;;;2.83;2.58;;;;;;;6.06;84.99;97173.09;4842781;29;20406;-84
2022/02/16 08:24:29;;;;;;;5.60;3.65;;;;;;;6.07;84.19;97175.47;4858596;29;20030;-84
2022/02/16 08:26:55;;;;;;;2.47;2.00;;;;;;;6.08;84.40;97176.28;4855467;29;20110;-84
2022/02/16 08:29:24;;;;;;;2.30;2.03;;;;;;;5.99;85.12;97133.63;4859488;29;20026;-84
2022/02/16 08:31:50;;;;;;;2.92;2.25;;;;;;;6.04;85.19;97141.56;4844168;29;20039;-83
2022/02/16 08:34:15;;;;;;;3.05;2.25;;;;;;;6.08;85.19;97128.59;4857349;29;20034;-83
2022/02/16 08:36:44;;;;;;;6.60;2.35;;;;;;;6.15;85.62;97150.34;4844761;29;20110;-83
2022/02/16 08:39:09;;;;;;;3.88;2.47;;;;;;;6.16;84.90;97143.19;4828374;29;20041;-83
2022/02/16 08:41:35;;;;;;;4.00;2.38;;;;;;;6.04;85.43;97116.94;4842922;29;20034;-84
2022/02/16 08:44:00;;;;;;;2.17;1.98;;;;;;;6.12;85.67;97136.81;4856106;29;20475;-83
2022/02/16 08:46:29;;;;;;;2.40;2.20;;;;;;;5.93;85.90;97091.50;4843761;29;20505;-83
2022/02/16 08:49:01;;;;;;;3.35;1.60;;;;;;;6.13;85.20;97106.63;4860155;29;20058;-84
2022/02/16 08:51:40;;;;;;;2.58;2.38;;;;;;;5.81;86.08;97053.84;4845601;29;20032;-84
2022/02/16 08:54:07;;;;;;;3.35;2.80;;;;;;;5.95;86.12;97082.25;4843574;29;21397;-84
2022/02/16 08:56:33;;;;;;;2.72;2.20;;;;;;;6.27;85.99;97118.31;4859371;29;20116;-83
2022/02/16 08:59:01;;;;;;;2.33;2.15;;;;;;;6.03;85.10;97076.41;4842696;29;20088;-84
2022/02/16 09:01:33;;;;;;;2.95;2.20;;;;;;;6.17;85.46;97089.16;4842325;29;20042;-84
2022/02/16 09:04:00;;;;;;;3.28;1.80;;;;;;;6.24;85.38;97111.69;4851350;29;20029;-84
2022/02/16 09:06:25;;;;;;;1.88;1.77;;;;;;;6.18;85.77;97098.69;4842867;29;20041;-84
2022/02/16 09:08:51;;;;;;;3.10;1.75;;;;;;;6.31;85.45;97077.00;4840513;29;20401;-84
2022/02/16 09:11:20;;;;;;;3.20;1.88;;;;;;;6.31;85.04;97074.34;4825675;29;20498;-84
2022/02/16 09:13:46;;;;;;;1.85;1.75;;;;;;;6.18;85.43;97064.28;4842295;29;20034;-84
2022/02/16 09:16:11;;;;;;;2.30;2.13;;;;;;;6.16;85.77;97045.97;4827128;29;20487;-84
2022/02/16 09:18:37;;;;;;;1.90;1.80;;;;;;;6.09;85.77;97034.88;4841925;29;20037;-84
2022/02/16 09:21:05;;;;;;;1.85;1.75;;;;;;;6.32;86.37;97078.56;4827989;29;20025;-84
2022/02/16 09:23:41;;;;;;;2.28;2.08;;;;;;;6.29;85.40;97065.88;4839964;29;20109;-84
2022/02/16 09:26:07;;;;;;;4.68;1.80;;;;;;;6.17;86.18;97044.94;4842190;29;20044;-83
2022/02/16 09:28:34;;;;;;;2.30;1.98;;;;;;;6.22;85.71;97052.09;4837607;29;20026;-84
2022/02/16 09:31:28;;;;;;;1.70;1.58;;;;;;;6.32;86.30;97066.13;4834721;29;20087;-84
2022/02/16 09:33:54;;;;;;;1.70;1.60;;;;;;;6.32;86.13;97075.91;4842297;29;20038;-84
2022/02/16 09:36:19;;;;;;;4.60;3.25;;;;;;;6.38;85.58;97082.81;4840463;29;20394;-84
2022/02/16 09:38:45;;;;;;;1.80;1.70;;;;;;;6.13;85.87;97045.72;4841260;29;20042;-84
2022/02/16 09:41:12;;;;;;;2.83;2.13;;;;;;;6.29;85.74;97064.00;4826911;29;20042;-84
2022/02/16 09:43:38;;;;;;;2.10;2.00;;;;;;;6.36;85.51;97076.97;4836052;29;20052;-84
2022/02/16 09:46:04;;;;;;;1.92;1.80;;;;;;;6.21;85.97;97022.13;4827377;29;20406;-84
2022/02/16 09:48:33;;;;;;;2.40;2.20;;;;;;;6.39;85.53;97052.59;4845199;29;20121;-84
2022/02/16 09:50:59;;;;;;;1.90;1.80;;;;;;;6.41;85.98;97039.88;4830265;29;20574;-84
2022/02/16 09:53:25;;;;;;;3.28;2.28;;;;;;;6.42;86.80;97060.81;4845438;29;20077;-84
2022/02/16 09:55:50;;;;;;;2.60;2.10;;;;;;;6.43;86.20;97053.66;4845430;29;20125;-84
2022/02/16 09:58:16;;;;;;;3.53;2.40;;;;;;;6.53;86.27;97072.22;4838075;29;20038;-84
2022/02/16 10:01:06;;;;;;;2.13;2.00;;;;;;;6.48;86.62;97049.19;4839012;29;20061;-84
2022/02/16 10:03:33;;;;;;;1.92;1.73;;;;;;;6.30;86.92;97002.00;4840322;29;20426;-84
2022/02/16 10:05:58;;;;;;;2.58;2.38;;;;;;;6.27;86.13;96994.59;4851453;29;20122;-84
2022/02/16 10:08:42;;;;;;;2.28;2.08;;;;;;;6.51;87.11;97032.72;4838176;29;20042;-84
2022/02/16 10:11:08;;;;;;;2.50;2.20;;;;;;;6.55;86.49;97038.31;4842084;29;20029;-84
2022/02/16 10:13:34;;;;;;;2.20;2.10;;;;;;;6.57;86.98;97039.63;4839137;29;20064;-84
2022/02/16 10:16:00;;;;;;;2.20;2.10;;;;;;;6.59;86.70;97057.91;4842954;29;20054;-83
2022/02/16 10:18:25;;;;;;;1.98;1.85;;;;;;;6.56;87.15;97040.69;4841450;29;20442;-84
2022/02/16 10:21:05;;;;;;;2.42;1.90;;;;;;;6.62;87.70;97054.72;4845059;29;20033;-83
2022/02/16 10:23:45;;;;;;;2.35;2.15;;;;;;;6.63;87.40;97040.41;4860027;29;20044;-84
2022/02/16 10:26:12;;;;;;;1.75;1.65;;;;;;;6.69;87.64;97023.44;4842301;29;20065;-84
2022/02/16 10:28:42;;;;;;;1.98;1.88;;;;;;;6.63;87.56;97027.16;4854801;29;20061;-84
2022/02/16 10:31:09;;;;;;;1.90;1.80;;;;;;;6.76;87.19;97050.47;4852382;29;20057;-84
2022/02/16 10:33:41;;;;;;;1.80;1.67;;;;;;;6.72;87.32;97042.25;4842811;29;20542;-84
2022/02/16 10:36:23;;;;;;;1.92;1.83;;;;;;;6.74;87.09;97023.41;4834991;29;20033;-84
2022/02/16 10:39:12;;;;;;;1.60;1.50;;;;;;;6.82;86.72;97022.88;4842288;29;20041;-84
2022/02/16 10:41:58;;;;;;;1.58;1.48;;;;;;;6.70;87.67;96995.88;4841997;29;20040;-84
2022/02/16 10:44:31;;;;;;;1.58;1.48;;;;;;;6.84;86.89;97031.34;4823127;29;20406;-84
2022/02/16 10:47:00;;;;;;;1.90;1.80;;;;;;;6.70;86.81;97036.44;4847018;29;20320;-84
2022/02/16 10:49:29;;;;;;;2.03;1.83;;;;;;;6.80;87.12;97023.13;4861149;29;20034;-84
2022/02/16 10:52:15;;;;;;;2.08;1.98;;;;;;;6.82;87.93;97025.50;4823426;29;20109;-84
2022/02/16 10:54:54;;;;;;;1.80;1.70;;;;;;;6.89;87.04;97028.69;4837433;29;20049;-84
2022/02/16 10:57:20;;;;;;;1.77;1.67;;;;;;;6.95;88.26;97024.16;4854210;29;20078;-84
2022/02/16 10:59:46;;;;;;;1.75;1.65;;;;;;;6.93;87.14;97013.03;4843888;29;20037;-84
2022/02/16 11:02:17;;;;;;;2.15;1.60;;;;;;;6.91;88.01;97017.81;4845811;29;20041;-84
2022/02/16 11:04:46;;;;;;;1.70;1.60;;;;;;;7.02;87.82;97012.22;4842373;29;20053;-84
2022/02/16 11:07:12;;;;;;;1.90;1.80;;;;;;;7.00;88.08;97003.72;4846154;29;20029;-83
2022/02/16 11:09:43;;;;;;;1.50;1.33;;;;;;;7.02;88.05;97012.22;4844381;29;20068;-84
2022/02/16 11:12:08;;;;;;;1.95;1.85;;;;;;;7.09;88.06;97027.84;4828809;29;20563;-84
2022/02/16 11:14:35;;;;;;;1.70;1.60;;;;;;;7.07;87.99;97000.78;4833741;29;20042;-84
2022/02/16 11:17:01;;;;;;;1.50;1.40;;;;;;;6.89;88.07;96980.97;4844305;29;20491;-84
2022/02/16 11:19:35;;;;;;;1.50;1.40;;;;;;;7.07;87.95;97003.44;4843377;29;20030;-84
2022/02/16 11:22:09;;;;;;;1.58;1.48;;;;;;;7.08;88.58;96973.97;4857800;29;20069;-84
2022/02/16 11:24:37;;;;;;;1.98;1.77;;;;;;;7.16;88.83;96994.66;4828540;29;20041;-84
2022/02/16 11:27:29;;;;;;;1.73;1.63;;;;;;;7.18;89.33;97011.09;4831227;29;20033;-84
2022/02/16 11:30:01;;;;;;;1.40;1.40;;;;;;;7.15;88.51;97001.03;4843539;29;20132;-84
2022/02/16 11:32:32;;;;;;;1.70;1.60;;;;;;;7.21;88.55;96997.28;4858329;29;20030;-84
2022/02/16 11:35:18;;;;;;;1.40;1.30;;;;;;;7.27;88.14;96984.78;4853879;29;20086;-84
2022/02/16 11:38:07;;;;;;;1.58;1.48;;;;;;;7.25;88.30;96982.41;4840842;29;20038;-85
2022/02/16 11:40:43;;;;;;;2.30;2.10;;;;;;;7.29;88.74;97003.88;4854333;29;20117;-84